M I D A S
Marine Information and Data Acquisition System
Tripno 866 of the Zeeleeuw from 2005-03-18 07:07:38 to 2005-03-18 15:38:58
Back to CruiseResearch ActivitiesStationsMapUnderway DataData graphs

EquipmentUnitsComment
TimeDGPSUTC
LatitudeDGPSDM.mWGS84
LongitudeDGPSDM.mWGS84
TemperatureSBE03/SBE38deg celciusITS90
ConductivitySBE21S/mITS90
SalinitySBE21 Practical Salinity Units
ChlorophylAChelsea fluorimeterg/lCalibrated in Aceton
Missing or incorrect values are displayed as -999
Sea surface data collected by the RV Zeeleeuw from 2005-03-18 07:08:53 to 2005-03-18 15:40:54
Time Latitude Longitude Temperature Conductivity Salinity ChlorophylA
2005-03-18 07:09:59 51°13.606 2°56.06 -999 0.685037 3.832377 -0.882377
2005-03-18 07:10:58 51°13.574 2°56.122 -999 0.684933 3.833442 -0.882377
2005-03-18 07:11:57 51°13.542 2°56.205 -999 0.684724 3.83377 -0.882377
2005-03-18 07:12:59 51°13.539 2°56.217 -999 0.684619 3.833709 -0.882377
2005-03-18 07:13:58 51°13.539 2°56.222 -999 0.684515 3.834212 -0.882377
2005-03-18 07:14:59 51°13.542 2°56.226 -999 0.68441 3.834263 -0.882377
2005-03-18 07:15:59 51°13.546 2°56.219 -999 0.684306 3.834371 -0.916087
2005-03-18 07:16:59 51°13.534 2°56.236 -999 0.684202 3.837081 -0.882377
2005-03-18 07:17:58 51°13.566 2°56.127 -999 0.683888 3.8339 -0.916087
2005-03-18 07:18:58 51°13.625 2°55.976 -999 0.683784 3.832935 -0.882377
2005-03-18 07:19:59 51°13.704 2°55.796 -999 0.683679 3.833099 -0.882377
2005-03-18 07:20:58 51°13.832 2°55.632 -999 0.68347 3.832524 -0.882377
2005-03-18 07:21:59 51°13.992 2°55.515 -999 0.683366 3.833198 -0.916087
2005-03-18 07:22:58 51°14.152 2°55.399 -999 0.683262 3.83308 -0.848668
2005-03-18 07:23:57 51°14.292 2°55.219 -999 0.683053 3.832222 -0.882377
2005-03-18 07:24:57 51°14.409 2°54.983 -999 0.682948 3.832274 -0.848668
2005-03-18 07:25:58 51°14.573 2°54.754 -999 0.682635 3.826101 -0.848668
2005-03-18 07:26:58 51°14.736 2°54.514 -999 3.200894 29.8602 2.960494
2005-03-18 07:27:58 51°14.87 2°54.243 -999 3.039724 30.311197 3.499845
2005-03-18 07:28:58 51°14.972 2°53.94 -999 3.031095 30.466213 3.365007
2005-03-18 07:29:58 51°15.061 2°53.627 -999 2.984778 30.043727 2.286306
2005-03-18 07:30:58 51°15.148 2°53.307 -999 2.993621 30.242857 1.915503
2005-03-18 07:31:58 51°15.238 2°52.989 -999 2.977307 30.185953 2.016631
2005-03-18 07:32:58 51°15.305 2°52.66 -999 2.960676 30.05187 2.387435
2005-03-18 07:33:58 51°15.359 2°52.326 -999 2.958466 30.045774 2.690819
2005-03-18 07:34:58 51°15.416 2°51.995 -999 2.986887 30.367805 2.859366
2005-03-18 07:35:59 51°15.478 2°51.664 -999 2.985413 30.367786 2.960494
2005-03-18 07:36:59 51°15.538 2°51.335 -999 2.999413 30.523541 2.6234
2005-03-18 07:37:58 51°15.588 2°51.007 -999 3.002887 30.582422 2.488563
2005-03-18 07:38:59 51°15.63 2°50.664 -999 3.008887 30.647553 2.353725
2005-03-18 07:39:58 51°15.671 2°50.333 -999 3.021519 30.760214 2.320016
2005-03-18 07:40:58 51°15.713 2°49.994 -999 3.028467 30.838384 2.488563
2005-03-18 07:41:59 51°15.744 2°49.652 -999 3.035942 30.926516 2.65711
2005-03-18 07:42:58 51°15.765 2°49.318 -999 3.028888 30.862325 2.6234
2005-03-18 07:43:58 51°15.786 2°48.972 -999 3.027625 30.872128 2.758238
2005-03-18 07:44:58 51°15.807 2°48.628 -999 3.026994 30.855398 2.893076
2005-03-18 07:45:59 51°15.83 2°48.281 -999 3.010151 30.688846 2.893076
2005-03-18 07:46:59 51°15.853 2°47.939 -999 3.000257 30.690629 3.365007
2005-03-18 07:47:59 51°15.876 2°47.598 -999 3.021206 30.979994 3.365007
2005-03-18 07:48:59 51°15.898 2°47.259 -999 3.003836 30.770399 3.499845
2005-03-18 07:49:58 51°15.909 2°46.922 -999 3.029312 31.0532 4.005486
2005-03-18 07:50:58 51°15.92 2°46.581 -999 3.034259 31.096268 4.005486
2005-03-18 07:51:59 51°15.934 2°46.241 -999 3.04247 31.151082 3.971777
2005-03-18 07:52:59 51°16.037 2°45.941 -999 3.065736 31.364666 3.76952
2005-03-18 07:53:58 51°16.161 2°45.656 -999 3.049944 31.18935 4.207742
2005-03-18 07:54:59 51°16.289 2°45.365 -999 3.081527 31.495833 4.443708
2005-03-18 07:55:58 51°16.414 2°45.074 -999 3.084159 31.517396 4.747093
2005-03-18 07:56:58 51°16.543 2°44.783 -999 3.067209 31.366647 4.376289
2005-03-18 07:57:58 51°16.674 2°44.493 -999 3.071631 31.400316 3.76952
2005-03-18 07:58:58 51°16.806 2°44.202 -999 3.088054 31.544219 4.140324
2005-03-18 07:59:58 51°16.933 2°43.913 -999 3.120587 31.878945 4.140324
2005-03-18 08:00:58 51°17.062 2°43.62 -999 3.121325 31.937802 4.747093
2005-03-18 08:01:59 51°17.192 2°43.327 -999 3.127537 32.039773 4.848221
2005-03-18 08:02:58 51°17.318 2°43.042 -999 3.131433 32.088114 4.443708
2005-03-18 08:03:58 51°17.446 2°42.755 -999 3.129748 32.083197 4.34258
2005-03-18 08:04:59 51°17.581 2°42.466 -999 3.139646 32.203881 4.645965
2005-03-18 08:05:58 51°17.716 2°42.183 -999 3.137435 32.173755 4.409999
2005-03-18 08:06:58 51°17.845 2°41.896 -999 3.139119 32.181988 3.297589
2005-03-18 08:07:58 51°17.98 2°41.614 -999 3.158494 32.428074 3.634683
2005-03-18 08:08:58 51°18.114 2°41.335 -999 3.155545 32.376861 3.80323
2005-03-18 08:09:59 51°18.25 2°41.05 -999 3.165232 32.481845 3.331298
2005-03-18 08:10:58 51°18.384 2°40.775 -999 3.162705 32.447224 3.263879
2005-03-18 08:11:58 51°18.52 2°40.497 -999 3.166075 32.48719 3.297589
2005-03-18 08:12:58 51°18.658 2°40.222 -999 3.173024 32.572089 3.634683
2005-03-18 08:13:59 51°18.798 2°39.945 -999 3.181869 32.659051 3.162751
2005-03-18 08:14:59 51°18.935 2°39.668 -999 3.185449 32.709109 2.758238
2005-03-18 08:15:58 51°19.071 2°39.391 -999 3.163548 32.477917 2.825657
2005-03-18 08:16:58 51°19.206 2°39.115 -999 3.185029 32.728165 2.218888
2005-03-18 08:17:58 51°19.338 2°38.836 -999 3.168076 32.544638 1.645828
2005-03-18 08:18:59 51°19.474 2°38.553 -999 3.174394 32.627558 1.982922
2005-03-18 08:19:58 51°19.607 2°38.273 -999 3.171761 32.601847 2.859366
2005-03-18 08:20:59 51°19.743 2°37.989 -999 3.167549 32.547128 2.218888
2005-03-18 08:21:58 51°19.876 2°37.711 -999 3.179237 32.672477 2.320016
2005-03-18 08:22:58 51°20.01 2°37.43 -999 3.191241 32.785217 2.185178
2005-03-18 08:23:59 51°20.145 2°37.148 -999 3.192083 32.767509 1.915503
2005-03-18 08:24:58 51°20.279 2°36.87 -999 3.189556 32.755815 1.915503
2005-03-18 08:25:58 51°20.414 2°36.588 -999 3.1924 32.808645 1.982922
2005-03-18 08:26:59 51°20.559 2°36.318 -999 3.185134 32.747273 2.151469
2005-03-18 08:27:59 51°20.767 2°36.239 -999 3.1785 32.663238 2.690819
2005-03-18 08:28:58 51°20.962 2°36.241 -999 3.172814 32.600238 2.994204
2005-03-18 08:29:59 51°21.162 2°36.244 -999 3.18566 32.739618 2.893076
2005-03-18 08:30:58 51°21.36 2°36.251 -999 3.175657 32.618991 2.825657
2005-03-18 08:31:58 51°21.563 2°36.269 -999 3.189767 32.772708 2.859366
2005-03-18 08:32:59 51°21.771 2°36.288 -999 3.165127 32.49164 2.859366
2005-03-18 08:33:58 51°21.972 2°36.311 -999 3.169234 32.538319 2.859366
2005-03-18 08:34:58 51°22.179 2°36.331 -999 3.188714 32.758167 2.65711
2005-03-18 08:35:58 51°22.393 2°36.356 -999 3.182712 32.689035 2.893076
2005-03-18 08:36:58 51°22.614 2°36.344 -999 3.173551 32.591644 2.859366
2005-03-18 08:37:58 51°22.816 2°36.187 -999 3.184081 32.727608 3.23017
2005-03-18 08:38:58 51°22.994 2°35.969 -999 3.187345 32.766476 2.690819
2005-03-18 08:39:58 51°23.172 2°35.74 -999 3.184607 32.725929 2.016631
2005-03-18 08:40:58 51°23.307 2°35.476 -999 3.183238 32.711202 1.746956
2005-03-18 08:41:58 51°23.337 2°35.136 -999 3.187556 32.772289 2.454853
2005-03-18 08:42:59 51°23.364 2°34.788 -999 3.167444 32.563748 3.702101
2005-03-18 08:43:58 51°23.394 2°34.452 -999 3.175973 32.671929 3.129042
2005-03-18 08:44:58 51°23.425 2°34.108 -999 3.187662 32.805971 2.555982
2005-03-18 08:45:58 51°23.455 2°33.768 -999 3.168181 32.584032 2.151469
2005-03-18 08:46:59 51°23.487 2°33.426 -999 3.201245 32.939375 1.679537
2005-03-18 08:47:58 51°23.527 2°33.095 -999 3.20135 32.928559 1.51099
2005-03-18 08:48:59 51°23.634 2°32.79 -999 3.205141 32.952868 1.51099
2005-03-18 08:49:59 51°23.742 2°32.485 -999 3.208616 32.986437 1.376153
2005-03-18 08:50:58 51°23.846 2°32.19 -999 3.203667 32.922361 1.275024
2005-03-18 08:51:58 51°23.954 2°31.883 -999 3.210933 33.002513 1.207606
2005-03-18 08:52:58 51°24.058 2°31.575 -999 3.206826 32.948036 1.173896
2005-03-18 08:53:58 51°24.143 2°31.254 -999 3.216408 33.042515 1.207606
2005-03-18 08:54:58 51°24.128 2°30.925 -999 3.221779 33.098487 1.173896
2005-03-18 08:55:58 51°24.03 2°30.666 -999 3.219883 33.060577 1.173896
2005-03-18 08:56:59 51°23.96 2°30.459 -999 3.218935 33.051513 1.308734
2005-03-18 08:57:58 51°23.89 2°30.243 -999 3.222095 33.093478 1.173896
2005-03-18 08:58:58 51°23.817 2°30.047 -999 3.220936 33.084596 1.140187
2005-03-18 08:59:59 51°23.769 2°29.905 -999 3.21367 33.000197 0.97164
2005-03-18 09:00:58 51°23.742 2°29.827 -999 3.229677 33.187546 1.072768
2005-03-18 09:01:59 51°23.733 2°29.785 -999 3.217567 33.051402 1.039059
2005-03-18 09:02:58 51°23.716 2°29.742 -999 3.22557 33.144231 1.106477
2005-03-18 09:03:58 51°23.64 2°29.622 -999 3.223674 33.123511 1.241315
2005-03-18 09:04:58 51°23.639 2°29.492 -999 3.217461 33.038176 1.578409
2005-03-18 09:05:58 51°23.719 2°29.502 -999 3.223253 33.123884 1.645828
2005-03-18 09:06:59 51°23.738 2°29.617 -999 3.222305 33.102759 1.679537
2005-03-18 09:07:59 51°23.73 2°29.702 -999 3.230309 33.200785 1.848084
2005-03-18 09:08:59 51°23.728 2°29.779 -999 3.217883 33.059296 1.612118
2005-03-18 09:10:00 51°23.742 2°29.796 -999 3.226096 33.151088 1.578409
2005-03-18 09:10:58 51°23.756 2°29.807 -999 3.226307 33.154349 1.612118
2005-03-18 09:11:58 51°23.753 2°29.851 -999 3.226728 33.149662 1.578409
2005-03-18 09:12:58 51°23.794 2°29.842 -999 3.226728 33.151386 1.51099
2005-03-18 09:13:59 51°23.78 2°29.87 -999 3.228518 33.174356 1.612118
2005-03-18 09:14:59 51°23.74 2°29.833 -999 3.227255 33.15307 1.477281
2005-03-18 09:15:59 51°23.744 2°29.803 -999 3.221989 33.096581 1.241315
2005-03-18 09:16:58 51°23.764 2°29.79 -999 3.225465 33.135276 1.207606
2005-03-18 09:17:58 51°23.808 2°29.768 -999 3.22578 33.138873 1.207606
2005-03-18 09:18:58 51°23.871 2°29.844 -999 3.224727 33.126024 1.342443
2005-03-18 09:19:59 51°23.835 2°29.947 -999 3.226517 33.136926 1.342443
2005-03-18 09:20:59 51°23.785 2°29.933 -999 3.23073 33.192633 1.308734
2005-03-18 09:21:58 51°23.768 2°29.892 -999 3.222305 33.097595 1.241315
2005-03-18 09:22:58 51°23.757 2°29.851 -999 3.22378 33.112653 1.207606
2005-03-18 09:23:58 51°23.747 2°29.817 -999 3.223253 33.1058 1.106477
2005-03-18 09:24:58 51°23.74 2°29.792 -999 3.225991 33.136962 1.207606
2005-03-18 09:25:58 51°23.732 2°29.781 -999 3.226939 33.145165 1.140187
2005-03-18 09:26:59 51°23.729 2°29.797 -999 3.227992 33.155428 1.207606
2005-03-18 09:27:59 51°23.724 2°29.82 -999 3.231046 33.185877 1.308734
2005-03-18 09:28:58 51°23.725 2°29.844 -999 3.230203 33.17715 1.275024
2005-03-18 09:29:59 51°23.729 2°29.868 -999 3.228834 33.161569 1.207606
2005-03-18 09:30:59 51°23.736 2°29.891 -999 3.233047 33.206925 1.140187
2005-03-18 09:31:59 51°23.746 2°29.915 -999 3.224201 33.103678 1.173896
2005-03-18 09:32:59 51°23.757 2°29.937 -999 3.23094 33.178642 1.173896
2005-03-18 09:33:59 51°23.752 2°29.991 -999 3.231783 33.186505 1.140187
2005-03-18 09:34:58 51°23.775 2°30.07 -999 3.221673 33.077505 1.207606
2005-03-18 09:35:58 51°23.833 2°30.079 -999 3.224411 33.116401 1.173896
2005-03-18 09:36:58 51°23.867 2°30.01 -999 3.226307 33.140558 1.106477
2005-03-18 09:37:58 51°23.82 2°29.937 -999 3.213144 32.991633 1.005349
2005-03-18 09:38:58 51°23.745 2°29.845 -999 3.232099 33.197 1.039059
2005-03-18 09:39:58 51°23.706 2°29.754 -999 3.225886 33.127152 1.039059
2005-03-18 09:40:58 51°23.716 2°29.735 -999 3.229256 33.170674 1.005349
2005-03-18 09:41:59 51°23.723 2°29.751 -999 3.2222 33.089515 1.106477
2005-03-18 09:42:59 51°23.725 2°29.769 -999 3.221042 33.072036 1.275024
2005-03-18 09:43:58 51°23.727 2°29.786 -999 3.215882 33.018489 1.241315
2005-03-18 09:44:59 51°23.707 2°29.795 -999 3.230203 33.178012 1.308734
2005-03-18 09:45:58 51°23.704 2°29.807 -999 3.224727 33.116553 1.106477
2005-03-18 09:46:58 51°23.711 2°29.823 -999 3.229255 33.163777 1.072768
2005-03-18 09:47:59 51°23.723 2°29.839 -999 3.223674 33.100269 1.039059
2005-03-18 09:48:58 51°23.735 2°29.85 -999 3.225991 33.112 0.97164
2005-03-18 09:49:59 51°23.748 2°29.862 -999 3.230624 33.156954 0.93793
2005-03-18 09:50:59 51°23.761 2°29.872 -999 3.229887 33.146849 0.93793
2005-03-18 09:51:59 51°23.774 2°29.883 -999 3.211353 32.937878 0.836802
2005-03-18 09:52:58 51°23.794 2°29.87 -999 3.231677 33.167209 0.769383
2005-03-18 09:53:59 51°23.772 2°29.789 -999 3.232204 33.186987 0.904221
2005-03-18 09:54:58 51°23.726 2°29.781 -999 3.231361 33.17223 0.97164
2005-03-18 09:55:58 51°23.69 2°29.789 -999 3.231888 33.186841 1.039059
2005-03-18 09:56:59 51°23.651 2°29.76 -999 3.230624 33.170737 1.072768
2005-03-18 09:57:59 51°23.662 2°29.688 -999 3.228518 33.158835 1.072768
2005-03-18 09:58:58 51°23.68 2°29.688 -999 3.229677 33.180643 1.140187
2005-03-18 09:59:58 51°23.7 2°29.693 -999 3.227149 33.152733 1.241315
2005-03-18 10:00:58 51°23.718 2°29.698 -999 3.228624 33.164344 1.207606
2005-03-18 10:01:59 51°23.734 2°29.703 -999 3.231572 33.185832 1.072768
2005-03-18 10:02:58 51°23.749 2°29.709 -999 3.224306 33.095417 1.039059
2005-03-18 10:03:58 51°23.763 2°29.718 -999 3.231993 33.16908 0.97164
2005-03-18 10:04:59 51°23.778 2°29.725 -999 3.232836 33.17177 0.803093
2005-03-18 10:05:58 51°23.804 2°29.699 -999 3.232625 33.171098 0.803093
2005-03-18 10:06:58 51°23.786 2°29.613 -999 3.227676 33.134607 0.97164
2005-03-18 10:07:59 51°23.735 2°29.627 -999 3.23273 33.184357 0.870512
2005-03-18 10:08:58 51°23.719 2°29.644 -999 3.23094 33.165715 0.870512
2005-03-18 10:09:58 51°23.712 2°29.658 -999 3.23094 33.171746 0.97164
2005-03-18 10:10:59 51°23.71 2°29.675 -999 3.228518 33.151081 1.072768
2005-03-18 10:11:59 51°23.715 2°29.691 -999 3.229045 33.157072 1.173896
2005-03-18 10:12:58 51°23.724 2°29.708 -999 3.22399 33.100422 1.140187
2005-03-18 10:13:59 51°23.733 2°29.725 -999 3.229466 33.161865 1.173896
2005-03-18 10:14:58 51°23.742 2°29.739 -999 3.231783 33.185642 1.140187
2005-03-18 10:15:59 51°23.758 2°29.737 -999 3.227781 33.137527 1.106477
2005-03-18 10:16:59 51°23.769 2°29.742 -999 3.232836 33.199351 1.275024
2005-03-18 10:17:59 51°23.778 2°29.754 -999 3.229466 33.163589 1.207606
2005-03-18 10:18:59 51°23.783 2°29.77 -999 3.230308 33.171452 1.241315
2005-03-18 10:19:59 51°23.788 2°29.784 -999 3.226412 33.125396 1.173896
2005-03-18 10:20:58 51°23.794 2°29.799 -999 3.223148 33.083961 1.140187
2005-03-18 10:21:58 51°23.801 2°29.813 -999 3.229677 33.1634 1.173896
2005-03-18 10:22:58 51°23.809 2°29.826 -999 3.231993 33.188901 1.173896
2005-03-18 10:23:58 51°23.816 2°29.839 -999 3.231046 33.180703 1.241315
2005-03-18 10:24:58 51°23.822 2°29.852 -999 3.231467 33.183772 1.173896
2005-03-18 10:25:58 51°23.8 2°29.874 -999 3.233468 33.199641 1.140187
2005-03-18 10:26:59 51°23.805 2°29.889 -999 3.231046 33.172945 1.207606
2005-03-18 10:27:59 51°23.789 2°29.902 -999 3.23073 33.172797 1.106477
2005-03-18 10:28:59 51°23.757 2°29.89 -999 3.232415 33.194557 0.97164
2005-03-18 10:29:58 51°23.74 2°29.857 -999 3.224833 33.111727 0.93793
2005-03-18 10:30:58 51°23.746 2°29.855 -999 3.230624 33.179358 0.97164
2005-03-18 10:31:59 51°23.752 2°29.87 -999 3.230308 33.172314 1.106477
2005-03-18 10:32:58 51°23.757 2°29.882 -999 3.229361 33.170148 1.106477
2005-03-18 10:33:58 51°23.763 2°29.894 -999 3.224833 33.115169 1.039059
2005-03-18 10:34:59 51°23.771 2°29.905 -999 3.231467 33.192396 0.836802
2005-03-18 10:35:58 51°23.779 2°29.914 -999 3.223148 33.088259 0.735674
2005-03-18 10:36:58 51°23.787 2°29.923 -999 3.230098 33.160439 0.735674
2005-03-18 10:37:58 51°23.797 2°29.93 -999 3.230308 33.168004 0.668255
2005-03-18 10:38:58 51°23.807 2°29.939 -999 3.23273 33.192116 0.701965
2005-03-18 10:39:58 51°23.816 2°29.946 -999 3.231046 33.172945 0.668255
2005-03-18 10:40:59 51°23.826 2°29.954 -999 3.233678 33.198588 0.634546
2005-03-18 10:41:59 51°23.84 2°29.955 -999 3.232099 33.179755 0.634546
2005-03-18 10:42:58 51°23.856 2°29.895 -999 3.230519 33.160062 0.634546
2005-03-18 10:43:59 51°23.845 2°29.835 -999 3.232099 33.183202 0.769383
2005-03-18 10:44:59 51°23.831 2°29.802 -999 3.232309 33.186461 0.904221
2005-03-18 10:45:58 51°23.828 2°29.8 -999 3.233678 33.201175 0.870512
2005-03-18 10:46:59 51°23.834 2°29.812 -999 3.232099 33.181478 1.005349
2005-03-18 10:47:58 51°23.844 2°29.822 -999 3.232415 33.185935 1.173896
2005-03-18 10:48:58 51°23.853 2°29.83 -999 3.233152 33.195184 1.207606
2005-03-18 10:49:59 51°23.857 2°29.843 -999 3.23252 33.187995 1.241315
2005-03-18 10:50:58 51°23.861 2°29.856 -999 3.232625 33.190917 1.173896
2005-03-18 10:51:58 51°23.863 2°29.87 -999 3.233152 33.194322 1.039059
2005-03-18 10:52:59 51°23.866 2°29.882 -999 3.23431 33.209227 1.072768
2005-03-18 10:53:58 51°23.852 2°29.901 -999 3.233468 33.197054 1.072768
2005-03-18 10:54:59 51°23.819 2°29.907 -999 3.233994 33.197871 1.005349
2005-03-18 10:55:59 51°23.793 2°29.901 -999 3.232836 33.189003 0.870512
2005-03-18 10:56:59 51°23.784 2°29.907 -999 3.232625 33.189193 0.870512
2005-03-18 10:57:58 51°23.785 2°29.92 -999 3.233573 33.193941 0.93793
2005-03-18 10:58:59 51°23.788 2°29.931 -999 3.233573 33.195665 0.97164
2005-03-18 10:59:59 51°23.791 2°29.94 -999 3.232625 33.185745 1.106477
2005-03-18 11:00:58 51°23.794 2°29.949 -999 3.232941 33.186753 1.039059
2005-03-18 11:01:59 51°23.798 2°29.956 -999 3.233257 33.19552 1.072768
2005-03-18 11:02:58 51°23.8 2°29.966 -999 3.233468 33.197916 1.072768
2005-03-18 11:03:58 51°23.77 2°29.981 -999 3.234521 33.204723 1.005349
2005-03-18 11:04:59 51°23.731 2°29.946 -999 3.231467 33.17429 0.904221
2005-03-18 11:05:58 51°23.725 2°29.902 -999 3.231888 33.184254 0.870512
2005-03-18 11:06:58 51°23.734 2°29.895 -999 3.232625 33.193504 0.836802
2005-03-18 11:07:59 51°23.742 2°29.899 -999 3.230624 33.175909 1.072768
2005-03-18 11:08:58 51°23.75 2°29.904 -999 3.232309 33.194222 0.97164
2005-03-18 11:09:59 51°23.757 2°29.907 -999 3.231783 33.177022 0.803093
2005-03-18 11:10:58 51°23.765 2°29.908 -999 3.234626 33.197299 0.735674
2005-03-18 11:11:59 51°23.771 2°29.911 -999 3.235047 33.196057 0.668255
2005-03-18 11:12:59 51°23.78 2°29.914 -999 3.234836 33.195385 0.634546
2005-03-18 11:13:59 51°23.787 2°29.917 -999 3.234415 33.195766 0.701965
2005-03-18 11:14:58 51°23.792 2°29.921 -999 3.233468 33.192743 0.769383
2005-03-18 11:15:59 51°23.799 2°29.925 -999 3.233783 33.192888 0.735674
2005-03-18 11:16:59 51°23.805 2°29.929 -999 3.235363 33.20827 0.600836
2005-03-18 11:17:59 51°23.811 2°29.931 -999 3.235468 33.206019 0.567127
2005-03-18 11:18:59 51°23.818 2°29.937 -999 3.235995 33.209421 0.600836
2005-03-18 11:19:59 51°23.823 2°29.941 -999 3.23589 33.206499 0.567127
2005-03-18 11:20:58 51°23.832 2°29.944 -999 3.2361 33.201137 0.567127
2005-03-18 11:21:58 51°23.851 2°29.901 -999 3.235995 33.204249 0.533418
2005-03-18 11:22:59 51°23.851 2°29.832 -999 3.235679 33.214452 0.769383
2005-03-18 11:23:59 51°23.845 2°29.795 -999 3.235468 33.215506 0.803093
2005-03-18 11:24:59 51°23.825 2°29.743 -999 3.2361 33.217518 0.93793
2005-03-18 11:25:59 51°23.809 2°29.734 -999 3.235363 33.209133 0.904221
2005-03-18 11:26:58 51°23.809 2°29.743 -999 3.236732 33.221255 0.93793
2005-03-18 11:27:58 51°23.809 2°29.75 -999 3.235995 33.215458 1.173896
2005-03-18 11:28:58 51°23.77 2°29.774 -999 3.2361 33.213206 1.241315
2005-03-18 11:29:59 51°23.725 2°29.698 -999 3.236943 33.212441 1.005349
2005-03-18 11:30:59 51°23.733 2°29.654 -999 3.234942 33.20779 0.803093
2005-03-18 11:31:59 51°23.741 2°29.646 -999 3.234942 33.206928 0.803093
2005-03-18 11:32:59 51°23.751 2°29.64 -999 3.235047 33.204677 0.836802
2005-03-18 11:33:58 51°23.762 2°29.567 -999 3.236205 33.212679 0.870512
2005-03-18 11:34:59 51°23.756 2°29.533 -999 3.2361 33.217518 0.836802
2005-03-18 11:35:58 51°23.765 2°29.557 -999 3.235784 33.220826 1.072768
2005-03-18 11:36:59 51°23.766 2°29.583 -999 3.235468 33.221546 1.106477
2005-03-18 11:37:58 51°23.762 2°29.6 -999 3.235047 33.221931 0.93793
2005-03-18 11:38:58 51°23.759 2°29.607 -999 3.235574 33.221881 0.93793
2005-03-18 11:39:58 51°23.761 2°29.608 -999 3.235363 33.218622 0.836802
2005-03-18 11:40:59 51°23.765 2°29.606 -999 3.23589 33.218573 0.769383
2005-03-18 11:41:59 51°23.769 2°29.602 -999 3.236416 33.219387 0.701965
2005-03-18 11:42:59 51°23.774 2°29.599 -999 3.236732 33.215218 0.668255
2005-03-18 11:43:58 51°23.778 2°29.599 -999 3.237574 33.22135 0.668255
2005-03-18 11:44:58 51°23.781 2°29.599 -999 3.237469 33.22274 0.600836
2005-03-18 11:45:59 51°23.781 2°29.6 -999 3.237259 33.220344 0.600836
2005-03-18 11:46:59 51°23.781 2°29.604 -999 3.237259 33.220344 0.634546
2005-03-18 11:47:58 51°23.78 2°29.607 -999 3.237469 33.220153 0.634546
2005-03-18 11:48:59 51°23.78 2°29.608 -999 3.237364 33.218093 0.668255
2005-03-18 11:49:58 51°23.78 2°29.607 -999 3.236837 33.210381 0.668255
2005-03-18 11:50:59 51°23.78 2°29.605 -999 3.21051 32.906944 0.634546
2005-03-18 11:51:59 51°23.781 2°29.603 -999 3.212722 32.930347 0.634546
2005-03-18 11:52:59 51°23.782 2°29.602 -999 3.237258 33.210861 0.567127
2005-03-18 11:53:59 51°23.782 2°29.603 -999 3.236732 33.213494 0.668255
2005-03-18 11:54:59 51°23.781 2°29.604 -999 3.237574 33.214453 0.634546
2005-03-18 11:55:58 51°23.78 2°29.603 -999 3.237259 33.219482 0.634546
2005-03-18 11:56:59 51°23.779 2°29.604 -999 3.235995 33.209421 0.701965
2005-03-18 11:57:58 51°23.779 2°29.604 -999 3.236416 33.216799 0.701965
2005-03-18 11:58:59 51°23.779 2°29.604 -999 3.236943 33.220201 0.668255
2005-03-18 11:59:59 51°23.778 2°29.606 -999 3.236943 33.219338 0.701965
2005-03-18 12:00:59 51°23.778 2°29.606 -999 3.236627 33.220058 0.668255
2005-03-18 12:01:58 51°23.779 2°29.606 -999 3.236521 33.217135 0.735674
2005-03-18 12:02:58 51°23.779 2°29.604 -999 3.236732 33.21953 0.701965
2005-03-18 12:03:59 51°23.78 2°29.604 -999 3.236837 33.217278 0.668255
2005-03-18 12:04:59 51°23.781 2°29.603 -999 3.237048 33.217949 0.668255
2005-03-18 12:05:59 51°23.781 2°29.603 -999 3.23768 33.217374 0.600836
2005-03-18 12:06:58 51°23.78 2°29.604 -999 3.23789 33.220631 0.634546
2005-03-18 12:07:59 51°23.778 2°29.606 -999 3.238206 33.220775 0.600836
2005-03-18 12:08:58 51°23.778 2°29.605 -999 3.238522 33.211439 0.567127
2005-03-18 12:09:59 51°23.778 2°29.606 -999 3.238522 33.220057 0.600836
2005-03-18 12:10:58 51°23.778 2°29.606 -999 3.237785 33.219434 0.634546
2005-03-18 12:11:59 51°23.777 2°29.606 -999 3.238101 33.217854 0.634546
2005-03-18 12:12:59 51°23.777 2°29.607 -999 3.238101 33.217854 0.668255
2005-03-18 12:13:58 51°23.776 2°29.607 -999 3.238206 33.219051 0.634546
2005-03-18 12:14:59 51°23.775 2°29.606 -999 3.238522 33.219195 0.533418
2005-03-18 12:15:59 51°23.776 2°29.606 -999 3.238627 33.218668 0.533418
2005-03-18 12:16:59 51°23.776 2°29.605 -999 3.238627 33.216944 0.600836
2005-03-18 12:17:59 51°23.777 2°29.604 -999 3.238627 33.220392 0.634546
2005-03-18 12:18:58 51°23.778 2°29.602 -999 3.238522 33.221781 0.634546
2005-03-18 12:19:59 51°23.778 2°29.601 -999 3.238522 33.217471 0.600836
2005-03-18 12:20:59 51°23.779 2°29.601 -999 3.238838 33.218477 0.634546
2005-03-18 12:21:58 51°23.777 2°29.602 -999 3.238627 33.217806 0.600836
2005-03-18 12:22:58 51°23.775 2°29.602 -999 3.238943 33.219674 0.600836
2005-03-18 12:23:59 51°23.774 2°29.602 -999 3.238417 33.221445 0.735674
2005-03-18 12:24:59 51°23.773 2°29.603 -999 3.23789 33.217183 0.870512
2005-03-18 12:25:59 51°23.774 2°29.604 -999 3.238101 33.223026 0.904221
2005-03-18 12:26:58 51°23.774 2°29.601 -999 3.238101 33.22044 0.870512
2005-03-18 12:27:59 51°23.774 2°29.599 -999 3.238101 33.219578 0.97164
2005-03-18 12:28:59 51°23.776 2°29.598 -999 3.238206 33.223361 0.769383
2005-03-18 12:29:58 51°23.778 2°29.596 -999 3.238101 33.223889 0.735674
2005-03-18 12:30:59 51°23.78 2°29.596 -999 3.238838 33.226235 0.701965
2005-03-18 12:31:58 51°23.782 2°29.597 -999 3.238417 33.219721 0.600836
2005-03-18 12:32:58 51°23.782 2°29.599 -999 3.238522 33.219195 0.634546
2005-03-18 12:33:59 51°23.781 2°29.602 -999 3.239049 33.220871 0.567127
2005-03-18 12:34:58 51°23.778 2°29.604 -999 3.238417 33.21455 0.567127
2005-03-18 12:35:58 51°23.776 2°29.606 -999 3.239049 33.217424 0.533418
2005-03-18 12:36:58 51°23.776 2°29.607 -999 3.239575 33.222547 0.600836
2005-03-18 12:37:58 51°23.776 2°29.606 -999 3.239364 33.222738 0.600836
2005-03-18 12:38:59 51°23.776 2°29.606 -999 3.239364 33.221876 0.634546
2005-03-18 12:39:59 51°23.777 2°29.604 -999 3.239786 33.22494 0.701965
2005-03-18 12:40:58 51°23.778 2°29.602 -999 3.240417 33.227813 0.600836
2005-03-18 12:41:58 51°23.779 2°29.603 -999 3.240523 33.223839 0.567127
2005-03-18 12:42:59 51°23.779 2°29.603 -999 3.241049 33.231546 0.499708
2005-03-18 12:43:58 51°23.778 2°29.603 -999 3.24126 33.227046 0.567127
2005-03-18 12:44:59 51°23.779 2°29.604 -999 3.241365 33.227381 0.533418
2005-03-18 12:45:59 51°23.778 2°29.603 -999 3.241892 33.227333 0.567127
2005-03-18 12:46:59 51°23.778 2°29.604 -999 3.242102 33.230587 0.533418
2005-03-18 12:47:59 51°23.778 2°29.604 -999 3.242734 33.235181 0.567127
2005-03-18 12:48:59 51°23.778 2°29.604 -999 3.240523 33.210061 0.533418
2005-03-18 12:49:58 51°23.778 2°29.606 -999 3.243471 33.234079 0.499708
2005-03-18 12:50:59 51°23.775 2°29.607 -999 3.243261 33.243747 0.567127
2005-03-18 12:51:59 51°23.774 2°29.607 -999 3.242945 33.239296 0.567127
2005-03-18 12:52:58 51°23.774 2°29.605 -999 3.242208 33.231784 0.634546
2005-03-18 12:53:59 51°23.773 2°29.603 -999 3.243261 33.242885 0.634546
2005-03-18 12:54:59 51°23.773 2°29.603 -999 3.242102 33.222837 0.600836
2005-03-18 12:55:59 51°23.772 2°29.603 -999 3.243471 33.23494 0.533418
2005-03-18 12:56:58 51°23.772 2°29.601 -999 3.243471 33.237524 0.499708
2005-03-18 12:57:59 51°23.772 2°29.6 -999 3.244314 33.247954 0.533418
2005-03-18 12:58:58 51°23.77 2°29.601 -999 3.24305 33.236185 0.533418
2005-03-18 12:59:59 51°23.767 2°29.601 -999 3.243366 33.239774 0.533418
2005-03-18 13:00:59 51°23.766 2°29.6 -999 3.243577 33.248198 0.600836
2005-03-18 13:01:59 51°23.766 2°29.598 -999 3.242734 33.237765 0.600836
2005-03-18 13:02:58 51°23.765 2°29.595 -999 3.243261 33.242024 0.600836
2005-03-18 13:03:59 51°23.765 2°29.591 -999 3.242418 33.233315 0.600836
2005-03-18 13:04:59 51°23.764 2°29.587 -999 3.244735 33.251016 0.600836
2005-03-18 13:05:58 51°23.764 2°29.584 -999 3.243155 33.237381 0.668255
2005-03-18 13:06:59 51°23.765 2°29.584 -999 3.244208 33.252791 0.668255
2005-03-18 13:07:59 51°23.764 2°29.582 -999 3.24463 33.248096 0.567127
2005-03-18 13:08:59 51°23.764 2°29.58 -999 3.245156 33.25063 0.533418
2005-03-18 13:09:59 51°23.763 2°29.58 -999 3.245683 33.252302 0.600836
2005-03-18 13:10:59 51°23.763 2°29.579 -999 3.245577 33.251106 0.634546
2005-03-18 13:11:59 51°23.762 2°29.579 -999 3.245156 33.252353 0.567127
2005-03-18 13:12:59 51°23.76 2°29.58 -999 3.245999 33.255028 0.567127
2005-03-18 13:13:58 51°23.76 2°29.58 -999 3.245999 33.251583 0.567127
2005-03-18 13:14:59 51°23.76 2°29.579 -999 3.246525 33.254977 0.600836
2005-03-18 13:15:58 51°23.76 2°29.577 -999 3.246736 33.253062 0.567127
2005-03-18 13:16:59 51°23.759 2°29.577 -999 3.246946 33.253731 0.533418
2005-03-18 13:17:59 51°23.757 2°29.576 -999 3.247262 33.254734 0.533418
2005-03-18 13:18:59 51°23.756 2°29.574 -999 3.247367 33.252485 0.465999
2005-03-18 13:19:59 51°23.756 2°29.573 -999 3.247473 33.257124 0.499708
2005-03-18 13:20:58 51°23.756 2°29.571 -999 3.246736 33.254784 0.600836
2005-03-18 13:21:59 51°23.756 2°29.567 -999 3.246736 33.257368 0.533418
2005-03-18 13:22:59 51°23.757 2°29.563 -999 3.24663 33.255311 0.600836
2005-03-18 13:23:58 51°23.757 2°29.56 -999 3.246841 33.255119 0.600836
2005-03-18 13:24:59 51°23.758 2°29.555 -999 3.246525 33.254116 0.567127
2005-03-18 13:25:59 51°23.759 2°29.553 -999 3.247052 33.255787 0.600836
2005-03-18 13:26:59 51°23.759 2°29.551 -999 3.247157 33.257844 0.567127
2005-03-18 13:27:59 51°23.76 2°29.55 -999 3.247157 33.256983 0.600836
2005-03-18 13:28:58 51°23.76 2°29.548 -999 3.247367 33.260235 0.634546
2005-03-18 13:29:58 51°23.761 2°29.548 -999 3.247578 33.260042 0.634546
2005-03-18 13:30:59 51°23.765 2°29.54 -999 3.247578 33.260042 0.600836
2005-03-18 13:31:59 51°23.769 2°29.529 -999 3.248736 33.260273 0.634546
2005-03-18 13:32:58 51°23.77 2°29.523 -999 3.249895 33.263948 0.634546
2005-03-18 13:33:58 51°23.767 2°29.522 -999 3.250632 33.267147 0.634546
2005-03-18 13:34:59 51°23.768 2°29.518 -999 3.250842 33.271258 0.567127
2005-03-18 13:35:59 51°23.776 2°29.494 -999 3.251264 33.273454 0.600836
2005-03-18 13:36:59 51°23.77 2°29.414 -999 3.251158 33.281731 0.701965
2005-03-18 13:37:58 51°23.717 2°29.386 -999 3.249895 33.285481 0.735674
2005-03-18 13:38:59 51°23.688 2°29.465 -999 3.249579 33.287928 0.803093
2005-03-18 13:39:59 51°23.669 2°29.596 -999 3.25 33.277198 0.836802
2005-03-18 13:40:58 51°23.677 2°29.71 -999 3.248421 33.265299 0.668255
2005-03-18 13:41:59 51°23.673 2°29.741 -999 3.24642 33.251198 0.701965
2005-03-18 13:42:58 51°23.673 2°29.739 -999 3.245998 33.246416 0.735674
2005-03-18 13:43:59 51°23.681 2°29.716 -999 3.245682 33.240247 0.836802
2005-03-18 13:44:58 51°23.685 2°29.694 -999 3.245788 33.243164 1.039059
2005-03-18 13:45:59 51°23.685 2°29.688 -999 3.245683 33.24369 1.039059
2005-03-18 13:46:59 51°23.682 2°29.693 -999 3.245577 33.243356 1.072768
2005-03-18 13:47:59 51°23.683 2°29.686 -999 3.246104 33.249333 1.039059
2005-03-18 13:49:00 51°23.683 2°29.693 -999 3.246209 33.249668 1.072768
2005-03-18 13:49:58 51°23.691 2°29.749 -999 3.246209 33.25139 1.140187
2005-03-18 13:50:58 51°23.722 2°29.793 -999 3.245577 33.245939 1.039059
2005-03-18 13:52:00 51°23.725 2°29.794 -999 3.245893 33.242637 0.836802
2005-03-18 13:52:59 51°23.724 2°29.798 -999 3.245893 33.24522 0.97164
2005-03-18 13:53:59 51°23.723 2°29.798 -999 3.246209 33.246224 1.072768
2005-03-18 13:54:58 51°23.723 2°29.829 -999 3.246104 33.245889 1.140187
2005-03-18 13:55:59 51°23.72 2°29.862 -999 3.246525 33.242062 0.97164
2005-03-18 13:57:00 51°23.713 2°29.912 -999 3.246104 33.238142 0.93793
2005-03-18 13:57:58 51°23.695 2°29.951 -999 3.245998 33.233506 0.769383
2005-03-18 13:58:59 51°23.678 2°29.973 -999 3.245577 33.229586 0.769383
2005-03-18 13:59:59 51°23.667 2°29.986 -999 3.245261 33.227721 0.836802
2005-03-18 14:00:59 51°23.66 2°29.996 -999 3.244524 33.225377 0.904221
2005-03-18 14:01:58 51°23.655 2°30.006 -999 3.244629 33.223131 0.904221
2005-03-18 14:02:59 51°23.654 2°30.015 -999 3.243998 33.221121 0.93793
2005-03-18 14:03:59 51°23.655 2°30.022 -999 3.244208 33.224372 0.93793
2005-03-18 14:04:59 51°23.656 2°30.028 -999 3.244208 33.226093 0.93793
2005-03-18 14:05:59 51°23.649 2°30.047 -999 3.244208 33.224372 0.97164
2005-03-18 14:06:59 51°23.568 2°30.195 -999 3.244208 33.220071 0.836802
2005-03-18 14:07:59 51°23.445 2°30.45 -999 3.243997 33.21338 0.735674
2005-03-18 14:08:59 51°23.254 2°30.618 -999 3.240417 33.166743 0.668255
2005-03-18 14:09:59 51°23.046 2°30.756 -999 3.233572 33.150033 0.668255
2005-03-18 14:10:58 51°22.844 2°30.891 -999 3.229676 33.12553 0.701965
2005-03-18 14:11:58 51°22.646 2°31.047 -999 3.213143 32.958221 1.072768
2005-03-18 14:12:58 51°22.469 2°31.257 -999 3.207141 32.906255 1.106477
2005-03-18 14:13:59 51°22.323 2°31.522 -999 3.207036 32.912754 1.072768
2005-03-18 14:14:59 51°22.192 2°31.801 -999 3.206088 32.9054 1.106477
2005-03-18 14:15:59 51°22.07 2°32.09 -999 3.20672 32.906597 1.241315
2005-03-18 14:16:59 51°21.967 2°32.397 -999 3.207246 32.888654 1.308734
2005-03-18 14:17:58 51°21.871 2°32.702 -999 3.205667 32.874126 1.409862
2005-03-18 14:18:59 51°21.784 2°33.033 -999 3.203772 32.878207 1.612118
2005-03-18 14:19:58 51°21.712 2°33.36 -999 3.20314 32.856509 1.645828
2005-03-18 14:20:58 51°21.626 2°33.693 -999 3.202929 32.840466 1.612118
2005-03-18 14:21:59 51°21.54 2°34.024 -999 3.199349 32.804064 1.342443
2005-03-18 14:22:58 51°21.448 2°34.342 -999 3.195031 32.773759 1.207606
2005-03-18 14:23:59 51°21.363 2°34.671 -999 3.185344 32.691749 1.173896
2005-03-18 14:24:59 51°21.266 2°34.981 -999 3.177447 32.612179 1.207606
2005-03-18 14:25:59 51°21.16 2°35.288 -999 3.165548 32.498965 1.342443
2005-03-18 14:26:59 51°21.053 2°35.597 -999 3.159652 32.453071 1.275024
2005-03-18 14:27:58 51°20.928 2°35.882 -999 3.158494 32.443282 1.275024
2005-03-18 14:28:59 51°20.785 2°36.158 -999 3.157336 32.436026 1.308734
2005-03-18 14:29:58 51°20.642 2°36.428 -999 3.15902 32.45096 1.376153
2005-03-18 14:30:59 51°20.499 2°36.706 -999 3.163547 32.452571 1.275024
2005-03-18 14:31:59 51°20.357 2°36.977 -999 3.16102 32.438216 1.275024
2005-03-18 14:32:58 51°20.214 2°37.251 -999 3.157335 32.397193 1.443571
2005-03-18 14:33:58 51°20.068 2°37.526 -999 3.158177 32.384849 1.443571
2005-03-18 14:34:59 51°19.924 2°37.804 -999 3.163652 32.425933 1.376153
2005-03-18 14:35:58 51°19.783 2°38.078 -999 3.167969 32.452156 1.241315
2005-03-18 14:36:59 51°19.636 2°38.355 -999 3.171128 32.473651 1.308734
2005-03-18 14:37:59 51°19.494 2°38.633 -999 3.171023 32.471614 1.376153
2005-03-18 14:38:58 51°19.351 2°38.907 -999 3.173129 32.487904 1.140187
2005-03-18 14:40:00 51°19.205 2°39.192 -999 3.174919 32.506511 1.106477
2005-03-18 14:40:59 51°19.065 2°39.468 -999 3.176077 32.514581 1.039059
2005-03-18 14:41:59 51°18.931 2°39.758 -999 3.175234 32.498287 1.039059
2005-03-18 14:42:58 51°18.799 2°40.04 -999 3.173234 32.474772 1.207606
2005-03-18 14:43:58 51°18.671 2°40.328 -999 3.167969 32.398313 1.477281
2005-03-18 14:44:59 51°18.533 2°40.616 -999 3.157333 32.231976 2.08405
2005-03-18 14:45:58 51°18.401 2°40.892 -999 3.143751 32.110939 2.151469
2005-03-18 14:46:58 51°18.263 2°41.176 -999 3.122904 31.962326 1.848084
2005-03-18 14:47:58 51°18.133 2°41.472 -999 3.118693 31.925419 1.814375
2005-03-18 14:48:58 51°18.002 2°41.768 -999 3.11606 31.8187 2.353725
2005-03-18 14:49:58 51°17.873 2°42.063 -999 3.104899 31.63852 2.791947
2005-03-18 14:50:59 51°17.744 2°42.363 -999 3.099529 31.57065 2.454853
2005-03-18 14:51:59 51°17.614 2°42.654 -999 3.059207 31.174854 2.589691
2005-03-18 14:52:58 51°17.488 2°42.94 -999 3.025626 30.90496 2.320016
2005-03-18 14:53:58 51°17.362 2°43.231 -999 3.002678 30.751674 2.218888
2005-03-18 14:54:58 51°17.225 2°43.522 -999 2.992152 30.683879 2.320016
2005-03-18 14:55:59 51°17.086 2°43.813 -999 2.986363 30.644758 2.353725
2005-03-18 14:56:58 51°16.955 2°44.095 -999 2.981837 30.611093 2.421144
2005-03-18 14:58:00 51°16.817 2°44.396 -999 2.986889 30.606656 2.286306
2005-03-18 14:59:00 51°16.683 2°44.684 -999 2.991099 30.620701 2.151469
2005-03-18 14:59:59 51°16.554 2°44.972 -999 2.994994 30.639949 2.151469
2005-03-18 15:00:59 51°16.418 2°45.261 -999 3.002362 30.692011 2.252597
2005-03-18 15:01:59 51°16.285 2°45.556 -999 3.004994 30.737753 2.555982
2005-03-18 15:03:00 51°16.149 2°45.854 -999 3.008994 30.770125 2.994204
2005-03-18 15:03:59 51°16.014 2°46.149 -999 3.024257 30.872649 2.960494
2005-03-18 15:04:59 51°15.913 2°46.466 -999 3.03331 30.948247 3.129042
2005-03-18 15:05:59 51°15.838 2°46.818 -999 3.033942 30.932069 2.893076
2005-03-18 15:06:59 51°15.777 2°47.169 -999 3.029521 30.909532 2.825657
2005-03-18 15:07:58 51°15.74 2°47.523 -999 3.026363 30.886764 2.859366
2005-03-18 15:08:59 51°15.693 2°47.882 -999 3.021626 30.861417 2.791947
2005-03-18 15:09:59 51°15.646 2°48.234 -999 3.016573 30.809205 2.690819
2005-03-18 15:10:59 51°15.613 2°48.588 -999 3.00952 30.718437 2.421144
2005-03-18 15:11:59 51°15.577 2°48.946 -999 3.005414 30.645047 2.185178
2005-03-18 15:12:58 51°15.544 2°49.296 -999 3.002782 30.616199 2.353725
2005-03-18 15:13:59 51°15.509 2°49.661 -999 3.001203 30.607163 2.421144
2005-03-18 15:14:59 51°15.476 2°50.024 -999 2.996151 30.596372 2.454853
2005-03-18 15:15:59 51°15.445 2°50.384 -999 2.99173 30.568788 2.522272
2005-03-18 15:16:58 51°15.427 2°50.737 -999 2.986887 30.393801 1.746956
2005-03-18 15:17:59 51°15.413 2°51.107 -999 2.988045 30.412338 1.713247
2005-03-18 15:18:58 51°15.397 2°51.466 -999 2.999202 30.48481 1.881794
2005-03-18 15:19:59 51°15.309 2°51.806 -999 2.99236 30.360824 2.286306
2005-03-18 15:20:58 51°15.218 2°52.132 -999 2.979518 30.274879 2.218888
2005-03-18 15:21:59 51°15.125 2°52.467 -999 2.969518 30.16504 1.915503
2005-03-18 15:22:58 51°15.035 2°52.795 -999 2.967308 30.115279 2.050341
2005-03-18 15:23:59 51°14.943 2°53.136 -999 2.966255 30.08635 2.117759
2005-03-18 15:24:59 51°14.845 2°53.461 -999 2.961308 30.059726 2.387435
2005-03-18 15:25:59 51°14.735 2°53.779 -999 2.978043 30.086122 2.6234
2005-03-18 15:26:59 51°14.628 2°54.097 -999 2.996041 30.157365 2.589691
2005-03-18 15:27:58 51°14.529 2°54.392 -999 3.011303 30.160961 2.387435
2005-03-18 15:28:58 51°14.449 2°54.656 -999 3.018354 30.091841 2.151469
2005-03-18 15:29:59 51°14.377 2°54.954 -999 3.003934 30.056473 2.353725
2005-03-18 15:30:59 51°14.292 2°55.208 -999 0.140943 1.124166 -0.781249
2005-03-18 15:31:58 51°14.18 2°55.373 -999 0.070128 0.540975 -0.814958
2005-03-18 15:32:58 51°14.064 2°55.462 -999 0.059837 0.458502 -0.814958
2005-03-18 15:34:00 51°13.957 2°55.539 -999 0.054745 0.417527 -0.781249
2005-03-18 15:35:00 51°13.855 2°55.613 -999 0.051107 0.388168 -0.814958
2005-03-18 15:36:00 51°13.77 2°55.691 -999 0.048301 0.365412 -0.814958
2005-03-18 15:36:59 51°13.708 2°55.797 -999 0.046119 0.34762 -0.814958
2005-03-18 15:38:00 51°13.653 2°55.915 -999 0.044456 0.333961 -0.814958
2005-03-18 15:38:58 51°13.617 2°56.025 -999 0.043105 0.32278 -0.781249
2005-03-18 15:39:59 51°13.598 2°56.095 -999 0.041858 0.312465 -0.814958